Terminal Aerodrome Forecast
Issued by NWS

Home | Current Version | Previous Version | Text Only | Print | Product List | Glossary On
Versions: 1 2 3 4 5 6 7 8 9 10 11 12 13 14 15 16 17 18 19
060
FTUS46 KMFR 061145
TAFOTH
TAF
KOTH 061145Z 0612/0712 13004KT P6SM SCT020 BKN035
     FM061300 13004KT P6SM OVC020
     FM070300 14004KT P6SM SCT025 BKN050=

USA.gov is the U.S. government's official web portal to all federal, state and local government web resources and services.